createdAt,value
2022-10-31T04:39:41.020Z,79.08
2022-10-31T04:40:40.982Z,78.84
2022-10-31T04:41:40.986Z,78.57
2022-10-31T04:42:40.939Z,78.64
2022-10-31T04:43:40.931Z,78.53
2022-10-31T04:44:40.919Z,78.64
2022-10-31T04:45:40.911Z,78.67
2022-10-31T04:46:40.957Z,78.78
2022-10-31T04:47:40.888Z,78.88
2022-10-31T04:48:40.874Z,78.53
2022-10-31T04:49:40.863Z,78.64
2022-10-31T04:50:40.882Z,78.13
2022-10-31T04:51:40.854Z,78.53
2022-10-31T04:52:40.845Z,78.33
2022-10-31T04:53:40.851Z,78.44
2022-10-31T04:54:40.849Z,78.23
2022-10-31T04:55:40.801Z,78.23
2022-10-31T04:56:40.792Z,78.47
2022-10-31T04:57:40.782Z,78.64
2022-10-31T04:58:40.867Z,78.44
2022-10-31T04:59:40.764Z,78.13
2022-10-31T05:00:40.774Z,78.03
2022-10-31T05:01:40.792Z,77.93
2022-10-31T05:02:40.783Z,77.83
2022-10-31T05:03:40.751Z,77.62
2022-10-31T05:04:40.711Z,78.33
2022-10-31T05:05:40.695Z,78.33
2022-10-31T05:06:40.709Z,77.93
2022-10-31T05:07:40.677Z,77.76
2022-10-31T05:08:40.659Z,77.97
2022-10-31T05:09:40.660Z,77.93
2022-10-31T05:10:40.650Z,77.97
2022-10-31T05:11:40.638Z,77.93
2022-10-31T05:12:40.617Z,77.56
2022-10-31T05:13:40.609Z,78.06
2022-10-31T05:14:40.595Z,77.83
2022-10-31T05:15:40.585Z,77.66
2022-10-31T05:16:40.582Z,78.17
2022-10-31T05:17:40.573Z,77.86
2022-10-31T05:18:40.556Z,77.97
2022-10-31T05:19:40.557Z,77.86
2022-10-31T05:20:40.539Z,77.86
2022-10-31T05:21:40.521Z,78.06
2022-10-31T05:22:40.513Z,78.06
2022-10-31T05:23:40.498Z,77.97
2022-10-31T05:24:40.495Z,77.66
2022-10-31T05:25:40.479Z,77.42
2022-10-31T05:26:40.469Z,77.52
2022-10-31T05:27:40.459Z,77.32
2022-10-31T05:28:40.452Z,0
2022-10-31T05:29:40.444Z,77.01
2022-10-31T05:30:40.437Z,76.91
2022-10-31T05:31:40.424Z,0
2022-10-31T05:32:40.406Z,77.42
2022-10-31T05:33:40.402Z,77.42
2022-10-31T05:34:40.390Z,77.32
2022-10-31T05:35:40.381Z,77.32
2022-10-31T05:36:40.371Z,77.36
2022-10-31T05:37:40.354Z,78.61
2022-10-31T05:38:40.343Z,78.61
2022-10-31T05:39:40.333Z,78.81
2022-10-31T05:40:40.323Z,79.12
2022-10-31T05:41:40.311Z,79.02
2022-10-31T05:42:40.303Z,78.91
2022-10-31T05:43:40.293Z,79.02
2022-10-31T05:44:40.283Z,79.46
2022-10-31T05:45:40.274Z,79.32
2022-10-31T05:46:40.270Z,79.32
2022-10-31T05:47:40.257Z,79.02
2022-10-31T05:48:40.248Z,78.91
2022-10-31T05:49:40.230Z,78.98
2022-10-31T05:50:40.223Z,79.32
2022-10-31T05:51:40.225Z,79.63
2022-10-31T05:52:40.193Z,79.83
2022-10-31T05:53:41.195Z,79.93
2022-10-31T05:54:40.188Z,80.17
2022-10-31T05:55:40.167Z,80.37
2022-10-31T05:56:40.186Z,80.47
2022-10-31T05:57:40.152Z,80.58
2022-10-31T05:58:40.133Z,80.98
2022-10-31T05:59:40.119Z,81.19
2022-10-31T06:00:40.130Z,81.29
2022-10-31T06:01:40.098Z,81.39
2022-10-31T06:02:40.086Z,81.39
2022-10-31T06:03:40.072Z,81.79
2022-10-31T06:04:40.072Z,81.66
2022-10-31T06:05:40.051Z,81.45
2022-10-31T06:06:40.056Z,81.56
2022-10-31T06:07:40.038Z,81.15
2022-10-31T06:08:40.020Z,81.25
2022-10-31T06:09:40.024Z,81.15
2022-10-31T06:10:40.002Z,0
2022-10-31T06:11:39.999Z,81.35
2022-10-31T06:12:39.991Z,81.25
2022-10-31T06:13:39.970Z,81.25
2022-10-31T06:14:39.957Z,81.79
2022-10-31T06:15:39.951Z,82.17
2022-10-31T06:16:39.941Z,81.76
2022-10-31T06:17:39.928Z,81.86
2022-10-31T06:18:39.919Z,81.45
2022-10-31T06:19:39.907Z,81.01
2022-10-31T06:20:39.899Z,81.11
2022-10-31T06:21:39.897Z,80.91
2022-10-31T06:22:39.874Z,80.91
2022-10-31T06:23:39.866Z,81.21
2022-10-31T06:24:39.860Z,81.01
2022-10-31T06:25:39.875Z,80.6
2022-10-31T06:26:39.833Z,81.01
2022-10-31T06:27:39.837Z,81.41
2022-10-31T06:28:39.817Z,81.52
2022-10-31T06:29:39.804Z,81.07
2022-10-31T06:30:39.792Z,80.77
2022-10-31T06:31:39.779Z,80.57
2022-10-31T06:32:39.795Z,80.57
2022-10-31T06:33:39.759Z,80.26
2022-10-31T06:34:39.753Z,80.02
2022-10-31T06:35:39.756Z,79.92
2022-10-31T06:36:39.742Z,79.72
2022-10-31T06:37:39.722Z,79.72
2022-10-31T06:38:39.719Z,79.51
2022-10-31T06:39:39.698Z,79.41
2022-10-31T06:40:39.690Z,79.61
2022-10-31T06:41:39.672Z,79.41
2022-10-31T06:42:39.671Z,79.85
2022-10-31T06:43:39.683Z,79.75
2022-10-31T06:44:39.651Z,80.16
2022-10-31T06:45:39.643Z,80.06
2022-10-31T06:46:39.633Z,79.92
2022-10-31T06:47:39.616Z,79.72
2022-10-31T06:48:39.601Z,79.61
2022-10-31T06:49:39.602Z,79.51
2022-10-31T06:50:39.585Z,79.61
2022-10-31T06:51:39.582Z,79.61
2022-10-31T06:52:39.564Z,79.82
2022-10-31T06:53:39.553Z,80.06
2022-10-31T06:54:39.536Z,79.96
2022-10-31T06:55:39.538Z,80.36
2022-10-31T06:56:39.520Z,81.01
2022-10-31T06:57:39.517Z,81.01
2022-10-31T06:58:39.504Z,81.15
2022-10-31T06:59:39.492Z,81.66
2022-10-31T07:00:39.476Z,82.51
2022-10-31T07:01:39.462Z,82.71
2022-10-31T07:02:39.462Z,82.81
2022-10-31T07:03:39.455Z,83.15
2022-10-31T07:04:39.434Z,83.26
2022-10-31T07:05:39.428Z,83.12
2022-10-31T07:06:39.416Z,83.32
2022-10-31T07:07:39.404Z,83.32
2022-10-31T07:08:39.401Z,83.01
2022-10-31T07:09:39.384Z,0
2022-10-31T07:10:40.393Z,82.61
2022-10-31T07:11:39.370Z,83.12
2022-10-31T07:12:39.359Z,83.62
2022-10-31T07:13:39.342Z,83.08
2022-10-31T07:14:39.325Z,82.78
2022-10-31T07:15:39.317Z,82.53
2022-10-31T07:16:39.310Z,81.88
2022-10-31T07:17:39.298Z,81.58
2022-10-31T07:18:39.292Z,81.07
2022-10-31T07:19:39.287Z,80.77
2022-10-31T07:20:39.264Z,80.53
2022-10-31T07:21:39.292Z,80.32
2022-10-31T07:22:39.246Z,79.98
2022-10-31T07:23:39.265Z,79.72
2022-10-31T07:24:39.224Z,79.41
2022-10-31T07:25:39.214Z,79.41
2022-10-31T07:26:39.202Z,79.61
2022-10-31T07:27:39.197Z,79.82
2022-10-31T07:28:39.187Z,79.92
2022-10-31T07:29:39.177Z,79.38
2022-10-31T07:30:39.160Z,79.17
2022-10-31T07:31:39.145Z,79.03
2022-10-31T07:32:39.142Z,78.73
2022-10-31T07:33:39.133Z,78.53
2022-10-31T07:34:39.137Z,78.33
2022-10-31T07:35:39.108Z,78.73
2022-10-31T07:36:39.101Z,78.73
2022-10-31T07:37:39.080Z,78.73
2022-10-31T07:38:39.075Z,0
2022-10-31T07:39:39.068Z,78.53
2022-10-31T07:40:39.058Z,78.77
2022-10-31T07:41:39.039Z,78.97
2022-10-31T07:42:39.037Z,79.98
2022-10-31T07:43:39.023Z,79.47
2022-10-31T07:44:39.018Z,80.08
2022-10-31T07:45:39.003Z,79.64
2022-10-31T07:46:38.993Z,79.24
2022-10-31T07:47:38.982Z,79.34
2022-10-31T07:48:38.983Z,79.44
2022-10-31T07:49:38.958Z,79.13
2022-10-31T07:50:38.952Z,79.24
2022-10-31T07:51:38.937Z,79.2
2022-10-31T07:52:38.928Z,79.1
2022-10-31T07:53:38.920Z,78.49
2022-10-31T07:54:38.924Z,78.89
2022-10-31T07:55:38.894Z,79.3
2022-10-31T07:56:38.879Z,79.3
2022-10-31T07:57:39.188Z,78.89
2022-10-31T07:58:38.861Z,78.89
2022-10-31T07:59:38.867Z,78.86
2022-10-31T08:00:38.848Z,78.66
2022-10-31T08:01:38.832Z,78.25
2022-10-31T08:02:38.820Z,78.42
2022-10-31T08:03:38.802Z,77.81
2022-10-31T08:04:38.798Z,78.45
2022-10-31T08:05:38.782Z,78.96
2022-10-31T08:06:38.777Z,78.62
2022-10-31T08:07:38.772Z,78.31
2022-10-31T08:08:38.756Z,78.92
2022-10-31T08:09:38.764Z,78.58
2022-10-31T08:10:38.849Z,78.28
2022-10-31T08:11:38.727Z,78.24
2022-10-31T08:12:38.715Z,77.73
2022-10-31T08:13:38.704Z,77.5
2022-10-31T08:14:38.702Z,77.19
2022-10-31T08:15:38.679Z,76.99
2022-10-31T08:16:38.672Z,77.19
2022-10-31T08:17:38.732Z,77.5
2022-10-31T08:18:38.655Z,77.6
2022-10-31T08:19:38.641Z,0
2022-10-31T08:20:38.636Z,0
2022-10-31T08:21:38.616Z,0
2022-10-31T08:22:38.604Z,0
2022-10-31T08:23:38.612Z,0
2022-10-31T08:25:38.578Z,78.41
2022-10-31T08:26:38.562Z,77.97
2022-10-31T08:27:38.550Z,78.67
2022-10-31T08:28:38.623Z,78.77
2022-10-31T08:29:38.533Z,78.67
2022-10-31T08:30:38.527Z,78.88
2022-10-31T08:31:38.511Z,78.97
2022-10-31T08:32:38.506Z,79.72
2022-10-31T08:33:38.503Z,79.48
2022-10-31T08:34:38.486Z,0
2022-10-31T08:35:38.474Z,0
2022-10-31T08:36:38.463Z,0
2022-10-31T08:37:38.466Z,0
2022-10-31T08:38:38.482Z,0
2022-10-31T08:39:38.426Z,79.04
2022-10-31T08:40:38.419Z,79.34
2022-10-31T08:41:38.414Z,79.24
2022-10-31T08:42:38.408Z,79.3
2022-10-31T08:43:38.398Z,78.66
2022-10-31T08:44:38.437Z,78.46
2022-10-31T08:45:38.368Z,77.92
2022-10-31T08:46:38.380Z,77.21
2022-10-31T08:47:38.370Z,76.71
2022-10-31T08:48:38.367Z,77.08
2022-10-31T08:49:38.327Z,76.91
2022-10-31T08:50:38.376Z,77.01
2022-10-31T08:51:38.316Z,77.62
2022-10-31T08:52:38.303Z,77.48
2022-10-31T08:53:38.289Z,76.97
2022-10-31T08:54:38.281Z,76.67
2022-10-31T08:55:38.481Z,0
2022-10-31T08:56:38.267Z,0
2022-10-31T08:57:38.240Z,0
2022-10-31T08:58:38.234Z,0
2022-10-31T08:59:38.220Z,0
2022-10-31T09:00:38.235Z,0
2022-10-31T09:01:38.212Z,0
2022-10-31T09:02:38.187Z,77.17
2022-10-31T09:03:38.176Z,77.28
2022-10-31T09:04:38.183Z,77.08
2022-10-31T09:05:38.151Z,0
2022-10-31T09:06:38.147Z,0
2022-10-31T09:07:38.136Z,0
2022-10-31T09:08:38.117Z,0
2022-10-31T09:09:38.111Z,0
2022-10-31T09:10:38.106Z,0
2022-10-31T09:11:38.121Z,79.16
2022-10-31T09:12:38.073Z,78.52
2022-10-31T09:13:38.079Z,77.92
2022-10-31T09:14:38.057Z,77.58
2022-10-31T09:15:38.043Z,77.78
2022-10-31T09:16:38.047Z,0
2022-10-31T09:17:38.020Z,0
2022-10-31T09:18:38.010Z,76.94
2022-10-31T09:19:38.006Z,76.94
2022-10-31T09:20:38.002Z,0
2022-10-31T09:21:37.989Z,0
2022-10-31T09:22:37.983Z,76.34
2022-10-31T09:23:37.964Z,76.94
2022-10-31T09:24:37.965Z,76.1
2022-10-31T09:25:37.935Z,0
2022-10-31T09:26:37.927Z,76.3
2022-10-31T09:27:37.933Z,76.2
2022-10-31T09:28:37.914Z,75.56
2022-10-31T09:29:37.900Z,75.66
2022-10-31T09:30:37.898Z,75.66
2022-10-31T09:31:37.897Z,75.26
2022-10-31T09:32:37.883Z,75.15
2022-10-31T09:33:37.873Z,74.55
2022-10-31T09:34:37.869Z,75.93
2022-10-31T09:35:37.830Z,76.43
2022-10-31T09:36:37.896Z,76.03
2022-10-31T09:37:37.940Z,0
2022-10-31T09:38:37.800Z,75.7
2022-10-31T09:39:37.831Z,0
2022-10-31T09:40:37.796Z,0
2022-10-31T09:41:37.873Z,0
2022-10-31T09:42:37.824Z,75.35
2022-10-31T09:43:37.818Z,0
2022-10-31T09:44:37.769Z,0
2022-10-31T09:45:37.761Z,0
2022-10-31T09:46:37.716Z,0
2022-10-31T09:47:37.707Z,0
2022-10-31T09:48:37.689Z,74.75
2022-10-31T09:49:37.683Z,75.19
2022-10-31T09:50:37.663Z,75.83
2022-10-31T09:51:37.652Z,76.5
2022-10-31T09:52:37.644Z,76.06
2022-10-31T09:53:37.635Z,75.35
2022-10-31T09:54:37.627Z,75.46
2022-10-31T09:55:37.608Z,75.26
2022-10-31T09:56:37.597Z,75.35
2022-10-31T09:57:37.587Z,75.56
2022-10-31T09:58:37.583Z,75.66
2022-10-31T09:59:37.571Z,75.56
2022-10-31T10:00:37.560Z,75.22
2022-10-31T10:01:37.546Z,75.46
2022-10-31T10:02:37.538Z,75.52
2022-10-31T10:03:37.526Z,75.52
2022-10-31T10:04:37.515Z,75.76
2022-10-31T10:05:37.510Z,75.76
2022-10-31T10:06:37.489Z,76.6
2022-10-31T10:07:37.544Z,76.12
2022-10-31T10:08:37.480Z,75.62
2022-10-31T10:09:37.495Z,75.52
2022-10-31T10:10:37.452Z,74.88
2022-10-31T10:11:37.502Z,74.58
2022-10-31T10:12:37.447Z,74.55
2022-10-31T10:13:37.435Z,74.35
2022-10-31T10:14:37.438Z,74.68
2022-10-31T10:15:37.405Z,74.24
2022-10-31T10:16:37.452Z,74.58
2022-10-31T10:17:37.438Z,74.78
2022-10-31T10:18:37.484Z,74.65
2022-10-31T10:19:37.438Z,74.31
2022-10-31T10:20:37.488Z,73.87
2022-10-31T10:21:37.454Z,73.03
2022-10-31T10:22:37.425Z,72.13
2022-10-31T10:23:37.409Z,72.67
2022-10-31T10:24:37.307Z,72.13
2022-10-31T10:25:37.296Z,72.17
2022-10-31T10:26:37.503Z,72.87
2022-10-31T10:27:37.270Z,72.43
2022-10-31T10:28:37.256Z,71.59
2022-10-31T10:29:37.394Z,0
2022-10-31T10:30:37.238Z,71.06
2022-10-31T10:31:37.224Z,0
2022-10-31T10:32:37.222Z,0
2022-10-31T10:33:37.204Z,0
2022-10-31T10:34:37.201Z,0
2022-10-31T10:35:37.182Z,0
2022-10-31T10:36:37.175Z,0
2022-10-31T10:37:37.174Z,0
2022-10-31T10:38:37.156Z,0
2022-10-31T10:39:37.148Z,0
2022-10-31T10:40:37.135Z,0
2022-10-31T10:41:37.132Z,0
2022-10-31T10:42:37.122Z,0
2022-10-31T10:43:37.161Z,0
2022-10-31T10:44:37.093Z,0
2022-10-31T10:45:37.076Z,0
2022-10-31T10:46:37.086Z,0
2022-10-31T10:47:37.114Z,0
2022-10-31T10:48:37.054Z,0
2022-10-31T10:49:37.041Z,0
2022-10-31T10:50:37.134Z,0
2022-10-31T10:52:37.034Z,0
2022-10-31T10:53:37.034Z,67.96
2022-10-31T10:54:37.198Z,68.92
2022-10-31T10:55:37.028Z,69.12
2022-10-31T10:56:36.997Z,0
2022-10-31T10:57:36.998Z,0
2022-10-31T10:58:37.127Z,0
2022-10-31T10:59:36.946Z,0
2022-10-31T11:00:36.939Z,0
2022-10-31T11:01:36.989Z,0
2022-10-31T11:02:37.149Z,0
2022-10-31T11:03:36.976Z,0
2022-10-31T11:04:36.923Z,0
2022-10-31T11:05:36.869Z,0
2022-10-31T11:06:36.887Z,0
2022-10-31T11:07:36.975Z,0
2022-10-31T11:08:37.858Z,68.29
2022-10-31T11:09:36.957Z,68.29
2022-10-31T11:10:36.845Z,68.26
2022-10-31T11:11:36.856Z,67.69
2022-10-31T11:12:37.998Z,67.96
2022-10-31T11:13:36.807Z,67.25
2022-10-31T11:14:36.813Z,67.86
2022-10-31T11:15:36.787Z,68.29
2022-10-31T11:16:36.772Z,68.16
2022-10-31T11:17:36.842Z,67.66
2022-10-31T11:18:36.780Z,0
2022-10-31T11:19:36.902Z,68.59
2022-10-31T11:20:36.940Z,68.26
2022-10-31T11:21:36.745Z,67.32
2022-10-31T11:22:36.729Z,67.36
2022-10-31T11:23:36.693Z,67.99
2022-10-31T11:24:36.667Z,68.19
2022-10-31T11:25:36.674Z,67.93
2022-10-31T11:26:36.647Z,66.93
2022-10-31T11:27:36.709Z,67.02
2022-10-31T11:28:36.726Z,66.79
2022-10-31T11:29:36.613Z,0
2022-10-31T11:30:36.644Z,0
2022-10-31T11:31:36.610Z,67.72
2022-10-31T11:32:36.591Z,0
2022-10-31T11:33:36.603Z,0
2022-10-31T11:34:36.648Z,0
2022-10-31T11:36:36.545Z,0
2022-10-31T11:37:36.528Z,0
2022-10-31T11:38:36.516Z,67.99
2022-10-31T11:39:36.519Z,68.69
2022-10-31T11:40:36.546Z,68.69
2022-10-31T11:41:37.487Z,68.39
2022-10-31T11:42:36.490Z,68.16
2022-10-31T11:43:36.473Z,67.86
2022-10-31T11:44:36.456Z,0
2022-10-31T11:45:36.459Z,0
2022-10-31T11:46:36.537Z,0
2022-10-31T11:47:36.436Z,0
2022-10-31T11:48:36.487Z,0
2022-10-31T11:49:36.413Z,0
2022-10-31T11:50:36.421Z,0
2022-10-31T11:51:36.390Z,0
2022-10-31T11:52:36.420Z,0
2022-10-31T11:53:36.445Z,0
2022-10-31T11:54:37.057Z,0
2022-10-31T11:55:36.345Z,65.53
2022-10-31T11:56:36.332Z,64.73
2022-10-31T11:57:36.329Z,65.46
2022-10-31T11:58:36.323Z,66.36
2022-10-31T11:59:36.304Z,66.39
2022-10-31T12:00:36.375Z,66.26
2022-10-31T12:01:37.283Z,65.13
2022-10-31T12:02:36.269Z,0
2022-10-31T12:03:36.290Z,0
2022-10-31T12:04:37.248Z,0
2022-10-31T12:05:37.143Z,0
2022-10-31T12:06:36.224Z,0
2022-10-31T12:07:36.223Z,0
2022-10-31T12:08:36.255Z,0
2022-10-31T12:09:36.282Z,0
2022-10-31T12:10:36.189Z,0
2022-10-31T12:11:36.170Z,0
2022-10-31T12:12:36.168Z,0
2022-10-31T12:13:36.218Z,0
2022-10-31T12:14:36.146Z,0
2022-10-31T12:15:36.168Z,0
2022-10-31T12:16:36.144Z,0
2022-10-31T12:17:36.240Z,0
2022-10-31T12:18:36.104Z,66.86
2022-10-31T12:19:36.119Z,66.03
2022-10-31T12:20:36.078Z,65.93
2022-10-31T12:21:36.071Z,66.16
2022-10-31T12:22:36.088Z,66.26
2022-10-31T12:23:36.093Z,66.59
2022-10-31T12:24:36.034Z,66.16
2022-10-31T12:25:36.027Z,66.03
2022-10-31T12:26:36.017Z,65.73
2022-10-31T12:27:36.137Z,66.16
2022-10-31T12:28:36.010Z,65.86
2022-10-31T12:29:36.007Z,66.79
2022-10-31T12:30:36.010Z,67.13
2022-10-31T12:31:35.969Z,67.29
2022-10-31T12:32:35.953Z,67.09
2022-10-31T12:33:35.984Z,67.19
2022-10-31T12:34:35.932Z,67.19
2022-10-31T12:35:35.920Z,66.86
2022-10-31T12:36:35.970Z,66.89
2022-10-31T12:37:35.895Z,66.69
2022-10-31T12:38:35.893Z,67.29
2022-10-31T12:39:35.879Z,67.09
2022-10-31T12:40:35.873Z,66.79
2022-10-31T12:41:35.876Z,66.66
2022-10-31T12:42:35.923Z,66.26
2022-10-31T12:43:35.831Z,66.46
2022-10-31T12:44:35.828Z,66.46
2022-10-31T12:45:35.822Z,66.56
2022-10-31T12:46:35.828Z,0
2022-10-31T12:47:35.793Z,0
2022-10-31T12:48:35.780Z,67.26
2022-10-31T12:49:35.773Z,66.53
2022-10-31T12:50:35.805Z,66.13
2022-10-31T12:51:36.800Z,66.13
2022-10-31T12:52:35.831Z,65.7
2022-10-31T12:53:35.803Z,65.93
2022-10-31T12:54:35.824Z,65.8
2022-10-31T12:55:35.833Z,65.56
2022-10-31T12:56:35.723Z,65.37
2022-10-31T12:57:35.695Z,65.37
2022-10-31T12:58:35.683Z,65.47
2022-10-31T12:59:35.677Z,64.87
2022-10-31T13:00:35.675Z,65.07
2022-10-31T13:01:35.710Z,65.07
2022-10-31T13:02:35.639Z,64.84
2022-10-31T13:03:35.650Z,65.1
2022-10-31T13:04:35.729Z,65.5
2022-10-31T13:05:35.624Z,65.17
2022-10-31T13:06:35.596Z,64.67
2022-10-31T13:07:35.582Z,64.87
2022-10-31T13:08:35.580Z,64.7
2022-10-31T13:09:35.563Z,65.7
2022-10-31T13:10:35.580Z,65.5
2022-10-31T13:11:35.647Z,64.97
2022-10-31T13:12:35.569Z,64.87
2022-10-31T13:13:35.556Z,64.54
2022-10-31T13:14:35.514Z,64.44
2022-10-31T13:15:35.522Z,64.34
2022-10-31T13:16:35.635Z,64.87
2022-10-31T13:17:35.482Z,66.3
2022-10-31T13:18:35.496Z,66
2022-10-31T13:19:35.476Z,66
2022-10-31T13:20:35.443Z,66.09
2022-10-31T13:21:35.444Z,66.43
2022-10-31T13:22:35.490Z,66.63
2022-10-31T13:23:36.407Z,66.5
2022-10-31T13:24:35.404Z,66.39
2022-10-31T13:25:35.395Z,66.09
2022-10-31T13:26:35.398Z,65.97
2022-10-31T13:27:35.371Z,66.09
2022-10-31T13:28:35.362Z,66.39
2022-10-31T13:29:35.419Z,66.23
2022-10-31T13:30:35.343Z,66.73
2022-10-31T13:31:35.434Z,0
2022-10-31T13:32:36.350Z,66.93
2022-10-31T13:33:35.341Z,66.83
2022-10-31T13:34:35.323Z,67.33
2022-10-31T13:35:35.287Z,66.8
2022-10-31T13:36:35.289Z,66.39
2022-10-31T13:37:35.279Z,66.2
2022-10-31T13:38:35.258Z,0
2022-10-31T13:39:35.237Z,65.97
2022-10-31T13:40:35.228Z,65.87
2022-10-31T13:41:35.220Z,65.56
2022-10-31T13:42:35.220Z,65.47
2022-10-31T13:43:35.210Z,65.7
2022-10-31T13:44:35.189Z,66
2022-10-31T13:45:35.188Z,65.9
2022-10-31T13:46:35.184Z,66.09
2022-10-31T13:47:35.159Z,0
2022-10-31T13:48:35.148Z,66.99
2022-10-31T13:49:35.151Z,67.36
2022-10-31T13:50:35.129Z,67.23
2022-10-31T13:51:35.138Z,66.93
2022-10-31T13:52:35.147Z,66.93
2022-10-31T13:53:35.104Z,66.73
2022-10-31T13:54:35.085Z,0
2022-10-31T13:55:35.082Z,0
2022-10-31T13:56:35.077Z,0
2022-10-31T13:57:35.165Z,0
2022-10-31T13:58:35.075Z,0
2022-10-31T13:59:35.060Z,66.7
2022-10-31T14:00:35.018Z,66.5
2022-10-31T14:01:35.012Z,66.83
2022-10-31T14:02:35.079Z,67.43
2022-10-31T14:03:34.994Z,67.86
2022-10-31T14:04:34.979Z,68.39
2022-10-31T14:05:34.994Z,0
2022-10-31T14:06:34.977Z,68.79
2022-10-31T14:07:34.949Z,68.89
2022-10-31T14:08:34.963Z,68.79
2022-10-31T14:09:35.928Z,68.66
2022-10-31T14:10:34.971Z,68.46
2022-10-31T14:11:34.910Z,0
2022-10-31T14:12:34.904Z,0
2022-10-31T14:13:34.902Z,67.83
2022-10-31T14:14:34.891Z,67.72
2022-10-31T14:15:34.872Z,68.03
2022-10-31T14:16:34.919Z,67.83
2022-10-31T14:17:34.844Z,68.26
2022-10-31T14:18:34.831Z,68.36
2022-10-31T14:19:34.863Z,68.46
2022-10-31T14:20:34.831Z,68.66
2022-10-31T14:21:34.824Z,68.23
2022-10-31T14:22:34.815Z,68.03
2022-10-31T14:23:34.815Z,67.72
2022-10-31T14:24:34.791Z,67.83
2022-10-31T14:25:35.042Z,67.72
2022-10-31T14:26:35.781Z,68.06
2022-10-31T14:27:34.868Z,68.16
2022-10-31T14:28:34.766Z,0
2022-10-31T14:29:34.866Z,68.03
2022-10-31T14:30:34.743Z,68.03
2022-10-31T14:31:34.807Z,67.63
2022-10-31T14:32:34.735Z,67.72
2022-10-31T14:33:34.689Z,67.72
2022-10-31T14:34:34.684Z,0
2022-10-31T14:35:34.792Z,0
2022-10-31T14:36:35.867Z,0
2022-10-31T14:37:34.639Z,0
2022-10-31T14:38:34.680Z,0
2022-10-31T14:39:35.709Z,0
2022-10-31T14:40:34.726Z,0
2022-10-31T14:41:34.896Z,68.89
2022-10-31T14:42:34.697Z,69.59
2022-10-31T14:43:34.745Z,0
2022-10-31T14:44:34.729Z,69.59
2022-10-31T14:45:34.629Z,69.89
2022-10-31T14:46:34.809Z,69.39
2022-10-31T14:47:34.525Z,69.49
2022-10-31T14:48:34.621Z,69.49
2022-10-31T14:49:35.560Z,69.89
2022-10-31T14:50:34.550Z,69.79
2022-10-31T14:51:35.614Z,69.49
2022-10-31T14:52:35.593Z,69.59
2022-10-31T14:53:34.829Z,0
2022-10-31T14:54:39.350Z,70.03
2022-10-31T14:55:35.523Z,70.03
2022-10-31T14:56:34.497Z,69.93
2022-10-31T14:57:34.420Z,69.69
2022-10-31T14:59:34.423Z,69.19
2022-10-31T15:00:34.520Z,69.09
2022-10-31T15:01:35.602Z,69.29
2022-10-31T15:02:34.899Z,69.19
2022-10-31T15:03:34.491Z,69.39
2022-10-31T15:04:34.465Z,69.73
2022-10-31T15:05:34.452Z,70.12
2022-10-31T15:06:35.439Z,70.12
2022-10-31T15:07:35.362Z,0
2022-10-31T15:08:34.318Z,70.23
2022-10-31T15:09:34.721Z,0
2022-10-31T15:10:34.531Z,70.66
2022-10-31T15:11:35.586Z,0
2022-10-31T15:12:34.313Z,70.39
2022-10-31T15:13:34.617Z,70.79
2022-10-31T15:14:34.386Z,0
2022-10-31T15:15:35.394Z,71.23
2022-10-31T15:16:35.449Z,71.09
2022-10-31T15:17:34.696Z,70.59
2022-10-31T15:18:34.419Z,70.39
2022-10-31T15:19:35.740Z,70.69
2022-10-31T15:20:34.390Z,0
2022-10-31T15:21:34.177Z,71.12
2022-10-31T15:22:34.375Z,70.69
2022-10-31T15:23:34.282Z,70.59
2022-10-31T15:24:34.210Z,70.69
2022-10-31T15:25:34.360Z,70.69
2022-10-31T15:26:34.579Z,0
2022-10-31T15:27:34.377Z,71.43
2022-10-31T15:28:34.412Z,71.09
2022-10-31T15:29:35.282Z,70.69
2022-10-31T15:30:34.256Z,71.12
2022-10-31T15:31:34.110Z,70.83
2022-10-31T15:32:34.065Z,70.93
2022-10-31T15:33:34.069Z,71.43
2022-10-31T15:34:34.080Z,71.23
2022-10-31T15:35:34.025Z,0
2022-10-31T15:36:34.026Z,71.86
2022-10-31T15:37:34.174Z,71.56
2022-10-31T15:38:35.011Z,71.53
2022-10-31T15:39:33.988Z,71.23
2022-10-31T15:40:33.970Z,0
2022-10-31T15:41:33.973Z,0
2022-10-31T15:42:34.049Z,71.77
2022-10-31T15:43:34.011Z,71.86
2022-10-31T15:44:34.077Z,0
2022-10-31T15:45:35.043Z,72.06
2022-10-31T15:46:35.193Z,0
2022-10-31T15:47:34.106Z,0
2022-10-31T15:48:34.085Z,71.86
2022-10-31T15:49:34.142Z,72.16
2022-10-31T15:50:34.861Z,72.5
2022-10-31T15:51:33.923Z,0
2022-10-31T15:52:34.238Z,0
2022-10-31T15:53:35.032Z,0
2022-10-31T15:54:35.101Z,72.27
2022-10-31T15:55:34.544Z,71.96
2022-10-31T15:56:34.107Z,71.77
2022-10-31T15:57:33.879Z,71.96
2022-10-31T15:58:35.045Z,72.16
2022-10-31T15:59:36.723Z,72.06
2022-10-31T16:00:34.902Z,72.3
2022-10-31T16:01:34.040Z,72.5
2022-10-31T16:02:34.858Z,72.7
2022-10-31T16:03:34.800Z,72.5
2022-10-31T16:04:34.748Z,72.9
2022-10-31T16:05:33.766Z,72.7
2022-10-31T16:06:33.755Z,72.5
2022-10-31T16:07:33.744Z,72.8
2022-10-31T16:08:33.914Z,73
2022-10-31T16:09:33.990Z,72.7
2022-10-31T16:10:33.656Z,0
2022-10-31T16:11:33.708Z,0
2022-10-31T16:12:33.772Z,0
2022-10-31T16:13:33.665Z,73.13
2022-10-31T16:14:33.666Z,72.9
2022-10-31T16:15:33.753Z,72.9
2022-10-31T16:16:33.790Z,0
2022-10-31T16:17:33.780Z,73.24
2022-10-31T16:18:33.717Z,73.44
2022-10-31T16:19:33.588Z,73.24
2022-10-31T16:20:33.565Z,73.13
2022-10-31T16:21:33.603Z,72.94
2022-10-31T16:22:33.573Z,73.33
2022-10-31T16:23:33.655Z,72.94
2022-10-31T16:24:33.694Z,73.44
2022-10-31T16:25:35.177Z,72.6
2022-10-31T16:26:33.787Z,72.4
2022-10-31T16:27:33.565Z,72.74
2022-10-31T16:28:33.575Z,72.83
2022-10-31T16:29:33.469Z,72.94
2022-10-31T16:30:33.456Z,72.83
2022-10-31T16:31:33.431Z,72.94
2022-10-31T16:32:33.440Z,73.03
2022-10-31T16:33:33.430Z,72.74
2022-10-31T16:34:33.424Z,72.94
2022-10-31T16:35:34.628Z,72.7
2022-10-31T16:36:33.482Z,72.74
2022-10-31T16:37:33.461Z,72.94
2022-10-31T16:38:33.425Z,72.33
2022-10-31T16:39:33.406Z,72.5
2022-10-31T16:40:33.443Z,73.24
2022-10-31T16:41:33.344Z,73.03
2022-10-31T16:42:33.605Z,72.7
2022-10-31T16:43:33.692Z,72.5
2022-10-31T16:44:33.324Z,72.2
2022-10-31T16:45:33.409Z,71.66
2022-10-31T16:46:33.324Z,71.56
2022-10-31T16:47:33.370Z,0
2022-10-31T16:48:33.478Z,72
2022-10-31T16:49:34.386Z,72.74
2022-10-31T16:50:34.345Z,72.6
2022-10-31T16:51:33.447Z,72.2
2022-10-31T16:52:33.225Z,72.2
2022-10-31T16:53:33.196Z,72.4
2022-10-31T16:54:33.193Z,72.09
2022-10-31T16:55:33.198Z,72.74
2022-10-31T16:56:33.167Z,72.74
2022-10-31T16:57:33.190Z,72.63
2022-10-31T16:59:36.483Z,75.62
2022-10-31T17:00:36.515Z,75.35
2022-10-31T17:01:36.472Z,75.01
2022-10-31T17:02:36.444Z,74.07
2022-10-31T17:03:36.453Z,73.57
2022-10-31T17:05:36.418Z,73.57
2022-10-31T17:06:36.399Z,73.17
2022-10-31T17:07:36.390Z,73.03
2022-10-31T17:08:36.399Z,72.94
2022-10-31T17:09:36.395Z,73.27
2022-10-31T17:10:36.381Z,73.57
2022-10-31T17:11:36.365Z,73.77
2022-10-31T17:12:37.111Z,73.24
2022-10-31T17:13:37.112Z,73.57
2022-10-31T17:14:36.343Z,73.27
2022-10-31T17:15:36.358Z,73.13
2022-10-31T17:16:37.111Z,73.37
2022-10-31T17:17:37.129Z,73.47
2022-10-31T17:18:36.383Z,73.67
2022-10-31T17:19:36.406Z,73.57
2022-10-31T17:20:36.407Z,73.87
2022-10-31T17:21:36.326Z,73.27
2022-10-31T17:22:36.320Z,73.47
2022-10-31T17:23:36.251Z,73.24
2022-10-31T17:24:36.326Z,73.03
2022-10-31T17:25:36.191Z,72.94
2022-10-31T17:26:36.185Z,72.83
2022-10-31T17:27:36.174Z,72.74
2022-10-31T17:28:36.161Z,72.74
2022-10-31T17:29:36.156Z,72.83
2022-10-31T17:30:36.143Z,72.97
2022-10-31T17:31:36.127Z,73.27
2022-10-31T17:32:36.132Z,73.47
2022-10-31T17:33:36.122Z,74.01
2022-10-31T17:34:36.103Z,74.51
2022-10-31T17:35:36.096Z,74.21
2022-10-31T17:36:36.078Z,74.01
2022-10-31T17:37:36.064Z,74.01
2022-10-31T17:38:36.073Z,73.77
2022-10-31T17:39:36.049Z,73.77
2022-10-31T17:40:36.037Z,73.71
2022-10-31T17:41:36.030Z,73.91
2022-10-31T17:42:36.045Z,73.91
2022-10-31T17:43:36.014Z,73.71
2022-10-31T17:44:36.004Z,74.11
2022-10-31T17:45:35.980Z,74.65
2022-10-31T17:46:35.983Z,75.05
2022-10-31T17:47:35.965Z,75.35
2022-10-31T17:48:35.960Z,75.38
2022-10-31T17:49:35.938Z,75.55
2022-10-31T17:50:35.937Z,74.95
2022-10-31T17:51:35.925Z,74.85
2022-10-31T17:52:35.908Z,74.95
2022-10-31T17:53:35.898Z,75.25
2022-10-31T17:54:35.886Z,75.25
2022-10-31T17:55:35.877Z,74.95
2022-10-31T17:56:35.876Z,74.74
2022-10-31T17:57:35.857Z,74.85
2022-10-31T17:58:35.860Z,75.05
2022-10-31T17:59:35.838Z,74.74